sensor_id;sensor_type;location;lat;lon;timestamp;pressure;altitude;pressure_sealevel;temperature;humidity
48053;BME280;33824;51.600;5.718;2023-06-26T00:00:42;101027.84;;;24.42;64.63
48053;BME280;33824;51.600;5.718;2023-06-26T00:03:28;101022.34;;;24.36;65.10
48053;BME280;33824;51.600;5.718;2023-06-26T00:05:54;101026.72;;;24.38;64.94
48053;BME280;33824;51.600;5.718;2023-06-26T00:08:20;101022.09;;;24.38;64.95
48053;BME280;33824;51.600;5.718;2023-06-26T00:10:45;101020.72;;;24.35;65.06
48053;BME280;33824;51.600;5.718;2023-06-26T00:13:11;101012.00;;;24.33;64.86
48053;BME280;33824;51.600;5.718;2023-06-26T00:15:37;101022.06;;;24.33;65.12
48053;BME280;33824;51.600;5.718;2023-06-26T00:18:03;101009.25;;;24.33;65.31
48053;BME280;33824;51.600;5.718;2023-06-26T00:20:29;101009.78;;;24.30;65.32
48053;BME280;33824;51.600;5.718;2023-06-26T00:22:54;101013.28;;;24.26;65.61
48053;BME280;33824;51.600;5.718;2023-06-26T00:25:23;101015.97;;;24.21;65.51
48053;BME280;33824;51.600;5.718;2023-06-26T00:27:49;101019.41;;;24.11;66.32
48053;BME280;33824;51.600;5.718;2023-06-26T00:30:14;101018.22;;;24.02;67.26
48053;BME280;33824;51.600;5.718;2023-06-26T00:32:40;101014.34;;;23.93;68.37
48053;BME280;33824;51.600;5.718;2023-06-26T00:35:06;101018.38;;;23.90;67.76
48053;BME280;33824;51.600;5.718;2023-06-26T00:37:32;101018.00;;;23.82;69.09
48053;BME280;33824;51.600;5.718;2023-06-26T00:39:57;101013.91;;;23.79;69.24
48053;BME280;33824;51.600;5.718;2023-06-26T00:42:23;101014.22;;;23.83;69.22
48053;BME280;33824;51.600;5.718;2023-06-26T00:44:48;101012.31;;;23.83;68.67
48053;BME280;33824;51.600;5.718;2023-06-26T00:47:15;101007.91;;;23.77;69.10
48053;BME280;33824;51.600;5.718;2023-06-26T00:49:41;101010.06;;;23.75;69.24
48053;BME280;33824;51.600;5.718;2023-06-26T00:52:07;101015.72;;;23.69;69.60
48053;BME280;33824;51.600;5.718;2023-06-26T00:54:32;101012.16;;;23.68;69.58
48053;BME280;33824;51.600;5.718;2023-06-26T00:56:58;101011.03;;;23.64;69.61
48053;BME280;33824;51.600;5.718;2023-06-26T00:59:24;101009.91;;;23.60;70.07
48053;BME280;33824;51.600;5.718;2023-06-26T01:01:49;101013.13;;;23.57;69.96
48053;BME280;33824;51.600;5.718;2023-06-26T01:04:15;101012.31;;;23.57;69.70
48053;BME280;33824;51.600;5.718;2023-06-26T01:06:47;101016.91;;;23.51;70.12
48053;BME280;33824;51.600;5.718;2023-06-26T01:09:18;101011.63;;;23.45;70.99
48053;BME280;33824;51.600;5.718;2023-06-26T01:11:45;101012.44;;;23.45;70.61
48053;BME280;33824;51.600;5.718;2023-06-26T01:14:13;101009.91;;;23.38;70.90
48053;BME280;33824;51.600;5.718;2023-06-26T01:16:40;101022.69;;;23.38;71.08
48053;BME280;33824;51.600;5.718;2023-06-26T01:19:12;101019.88;;;23.33;71.27
48053;BME280;33824;51.600;5.718;2023-06-26T01:21:42;101016.84;;;23.29;70.78
48053;BME280;33824;51.600;5.718;2023-06-26T01:24:18;101028.44;;;23.20;72.26
48053;BME280;33824;51.600;5.718;2023-06-26T01:26:53;101030.66;;;23.23;71.50
48053;BME280;33824;51.600;5.718;2023-06-26T01:29:19;101032.00;;;23.20;71.38
48053;BME280;33824;51.600;5.718;2023-06-26T01:31:47;101033.56;;;23.16;71.58
48053;BME280;33824;51.600;5.718;2023-06-26T01:34:16;101033.25;;;23.13;71.67
48053;BME280;33824;51.600;5.718;2023-06-26T01:36:44;101041.09;;;23.09;71.44
48053;BME280;33824;51.600;5.718;2023-06-26T01:39:10;101046.78;;;23.08;71.61
48053;BME280;33824;51.600;5.718;2023-06-26T01:41:36;101042.66;;;23.05;71.40
48053;BME280;33824;51.600;5.718;2023-06-26T01:46:36;101062.28;;;22.57;75.22
48053;BME280;33824;51.600;5.718;2023-06-26T01:49:12;101058.22;;;22.71;73.39
48053;BME280;33824;51.600;5.718;2023-06-26T01:51:45;101066.69;;;22.75;73.26
48053;BME280;33824;51.600;5.718;2023-06-26T01:54:18;101064.03;;;22.63;74.37
48053;BME280;33824;51.600;5.718;2023-06-26T01:56:45;101062.25;;;22.69;72.84
48053;BME280;33824;51.600;5.718;2023-06-26T01:59:12;101061.31;;;22.63;73.48
48053;BME280;33824;51.600;5.718;2023-06-26T02:01:39;101072.09;;;22.58;73.12
48053;BME280;33824;51.600;5.718;2023-06-26T02:04:05;101070.63;;;22.51;73.73
48053;BME280;33824;51.600;5.718;2023-06-26T02:06:31;101076.78;;;22.46;74.01
48053;BME280;33824;51.600;5.718;2023-06-26T02:08:56;101078.44;;;22.47;73.55
48053;BME280;33824;51.600;5.718;2023-06-26T02:11:23;101077.78;;;22.40;73.84
48053;BME280;33824;51.600;5.718;2023-06-26T02:13:48;101083.22;;;22.40;73.10
48053;BME280;33824;51.600;5.718;2023-06-26T02:16:14;101088.00;;;22.33;73.49
48053;BME280;33824;51.600;5.718;2023-06-26T02:18:40;101088.41;;;22.25;73.93
48053;BME280;33824;51.600;5.718;2023-06-26T02:21:05;101088.63;;;22.23;73.92
48053;BME280;33824;51.600;5.718;2023-06-26T02:23:31;101088.19;;;22.15;74.76
48053;BME280;33824;51.600;5.718;2023-06-26T02:25:57;101080.47;;;22.07;74.97
48053;BME280;33824;51.600;5.718;2023-06-26T02:28:22;101086.03;;;22.00;74.78
48053;BME280;33824;51.600;5.718;2023-06-26T02:30:48;101083.25;;;21.95;75.25
48053;BME280;33824;51.600;5.718;2023-06-26T02:33:13;101084.03;;;21.95;74.61
48053;BME280;33824;51.600;5.718;2023-06-26T02:35:39;101082.88;;;21.91;75.20
48053;BME280;33824;51.600;5.718;2023-06-26T02:38:04;101085.47;;;21.86;75.35
48053;BME280;33824;51.600;5.718;2023-06-26T02:40:30;101090.06;;;21.86;74.75
48053;BME280;33824;51.600;5.718;2023-06-26T02:42:55;101084.53;;;21.81;74.83
48053;BME280;33824;51.600;5.718;2023-06-26T02:45:21;101091.78;;;21.75;75.50
48053;BME280;33824;51.600;5.718;2023-06-26T02:47:46;101089.56;;;21.72;75.15
48053;BME280;33824;51.600;5.718;2023-06-26T02:50:12;101093.81;;;21.68;75.38
48053;BME280;33824;51.600;5.718;2023-06-26T02:52:37;101099.00;;;21.58;75.74
48053;BME280;33824;51.600;5.718;2023-06-26T02:55:04;101106.31;;;21.58;76.28
48053;BME280;33824;51.600;5.718;2023-06-26T02:57:30;101108.69;;;21.54;76.20
48053;BME280;33824;51.600;5.718;2023-06-26T02:59:56;101107.06;;;21.53;76.30
48053;BME280;33824;51.600;5.718;2023-06-26T03:02:21;101111.66;;;21.52;75.85
48053;BME280;33824;51.600;5.718;2023-06-26T03:04:47;101122.16;;;21.49;76.14
48053;BME280;33824;51.600;5.718;2023-06-26T03:07:13;101120.28;;;21.49;75.69
48053;BME280;33824;51.600;5.718;2023-06-26T03:09:38;101126.50;;;21.50;75.95
48053;BME280;33824;51.600;5.718;2023-06-26T03:12:04;101130.75;;;21.46;76.33
48053;BME280;33824;51.600;5.718;2023-06-26T03:14:30;101118.03;;;21.46;76.56
48053;BME280;33824;51.600;5.718;2023-06-26T03:16:57;101125.00;;;21.42;76.63
48053;BME280;33824;51.600;5.718;2023-06-26T03:19:24;101120.38;;;21.43;76.82
48053;BME280;33824;51.600;5.718;2023-06-26T03:21:50;101126.66;;;21.43;76.35
48053;BME280;33824;51.600;5.718;2023-06-26T03:24:16;101123.09;;;21.43;75.93
48053;BME280;33824;51.600;5.718;2023-06-26T03:26:41;101120.03;;;21.39;76.26
48053;BME280;33824;51.600;5.718;2023-06-26T03:29:08;101127.34;;;21.39;76.50
48053;BME280;33824;51.600;5.718;2023-06-26T03:31:33;101123.81;;;21.38;76.25
48053;BME280;33824;51.600;5.718;2023-06-26T03:33:59;101121.00;;;21.33;76.47
48053;BME280;33824;51.600;5.718;2023-06-26T03:36:24;101126.91;;;21.30;76.71
48053;BME280;33824;51.600;5.718;2023-06-26T03:38:50;101121.72;;;21.29;77.12
48053;BME280;33824;51.600;5.718;2023-06-26T03:41:16;101133.63;;;21.28;76.73
48053;BME280;33824;51.600;5.718;2023-06-26T03:43:42;101130.22;;;21.21;77.06
48053;BME280;33824;51.600;5.718;2023-06-26T03:46:07;101134.78;;;21.08;77.69
48053;BME280;33824;51.600;5.718;2023-06-26T03:48:33;101127.47;;;21.09;77.69
48053;BME280;33824;51.600;5.718;2023-06-26T03:50:58;101130.53;;;21.01;77.93
48053;BME280;33824;51.600;5.718;2023-06-26T03:53:24;101136.44;;;20.98;78.18
48053;BME280;33824;51.600;5.718;2023-06-26T03:55:50;101142.31;;;20.95;78.26
48053;BME280;33824;51.600;5.718;2023-06-26T03:58:15;101134.19;;;20.95;77.77
48053;BME280;33824;51.600;5.718;2023-06-26T04:00:41;101133.50;;;20.88;78.65
48053;BME280;33824;51.600;5.718;2023-06-26T04:03:06;101140.66;;;20.82;78.72
48053;BME280;33824;51.600;5.718;2023-06-26T04:05:32;101139.72;;;20.77;79.04
48053;BME280;33824;51.600;5.718;2023-06-26T04:07:58;101145.84;;;20.72;79.44
48053;BME280;33824;51.600;5.718;2023-06-26T04:10:23;101154.44;;;20.69;79.72
48053;BME280;33824;51.600;5.718;2023-06-26T04:12:49;101149.47;;;20.66;79.16
48053;BME280;33824;51.600;5.718;2023-06-26T04:15:14;101162.28;;;20.59;79.76
48053;BME280;33824;51.600;5.718;2023-06-26T04:17:40;101167.25;;;20.62;79.54
48053;BME280;33824;51.600;5.718;2023-06-26T04:20:06;101174.78;;;20.60;80.09
48053;BME280;33824;51.600;5.718;2023-06-26T04:22:33;101164.41;;;20.57;80.26
48053;BME280;33824;51.600;5.718;2023-06-26T04:25:02;101173.91;;;20.48;81.54
48053;BME280;33824;51.600;5.718;2023-06-26T04:27:28;101177.31;;;20.43;82.07
48053;BME280;33824;51.600;5.718;2023-06-26T04:29:54;101188.28;;;20.48;81.78
48053;BME280;33824;51.600;5.718;2023-06-26T04:32:19;101187.59;;;20.53;82.09
48053;BME280;33824;51.600;5.718;2023-06-26T04:34:45;101179.59;;;20.46;82.81
48053;BME280;33824;51.600;5.718;2023-06-26T04:37:12;101187.59;;;20.53;82.64
48053;BME280;33824;51.600;5.718;2023-06-26T04:39:41;101190.91;;;20.55;83.09
48053;BME280;33824;51.600;5.718;2023-06-26T04:42:07;101187.97;;;20.56;83.08
48053;BME280;33824;51.600;5.718;2023-06-26T04:44:33;101193.91;;;20.65;83.45
48053;BME280;33824;51.600;5.718;2023-06-26T04:46:59;101195.91;;;20.70;83.69
48053;BME280;33824;51.600;5.718;2023-06-26T04:49:24;101188.72;;;20.75;83.29
48053;BME280;33824;51.600;5.718;2023-06-26T04:51:50;101200.97;;;20.78;84.30
48053;BME280;33824;51.600;5.718;2023-06-26T04:54:16;101205.59;;;20.89;84.21
48053;BME280;33824;51.600;5.718;2023-06-26T04:56:42;101204.91;;;21.05;83.66
48053;BME280;33824;51.600;5.718;2023-06-26T04:59:09;101212.25;;;21.16;84.16
48053;BME280;33824;51.600;5.718;2023-06-26T05:01:39;101207.53;;;21.23;84.02
48053;BME280;33824;51.600;5.718;2023-06-26T05:04:05;101212.97;;;21.35;83.66
48053;BME280;33824;51.600;5.718;2023-06-26T05:06:31;101210.25;;;21.46;83.62
48053;BME280;33824;51.600;5.718;2023-06-26T05:08:57;101210.63;;;21.50;83.59
48053;BME280;33824;51.600;5.718;2023-06-26T05:11:24;101222.41;;;21.56;83.99
48053;BME280;33824;51.600;5.718;2023-06-26T05:13:50;101220.03;;;21.71;83.37
48053;BME280;33824;51.600;5.718;2023-06-26T05:16:16;101226.31;;;21.71;83.25
48053;BME280;33824;51.600;5.718;2023-06-26T05:18:41;101217.81;;;21.79;82.35
48053;BME280;33824;51.600;5.718;2023-06-26T05:21:07;101220.88;;;21.71;84.35
48053;BME280;33824;51.600;5.718;2023-06-26T05:23:34;101222.63;;;21.77;83.72
48053;BME280;33824;51.600;5.718;2023-06-26T05:26:01;101226.75;;;21.91;82.88
48053;BME280;33824;51.600;5.718;2023-06-26T05:28:28;101226.16;;;22.01;82.96
48053;BME280;33824;51.600;5.718;2023-06-26T05:30:57;101232.63;;;22.12;82.12
48053;BME280;33824;51.600;5.718;2023-06-26T05:33:24;101235.97;;;22.02;82.41
48053;BME280;33824;51.600;5.718;2023-06-26T05:35:51;101231.03;;;22.27;81.52
48053;BME280;33824;51.600;5.718;2023-06-26T05:38:18;101233.56;;;22.45;81.17
48053;BME280;33824;51.600;5.718;2023-06-26T05:40:44;101239.38;;;22.66;80.30
48053;BME280;33824;51.600;5.718;2023-06-26T05:43:10;101244.41;;;22.85;79.49
48053;BME280;33824;51.600;5.718;2023-06-26T05:45:36;101252.84;;;22.72;79.56
48053;BME280;33824;51.600;5.718;2023-06-26T05:48:02;101250.63;;;22.69;79.54
48053;BME280;33824;51.600;5.718;2023-06-26T05:50:28;101251.81;;;22.62;80.21
48053;BME280;33824;51.600;5.718;2023-06-26T05:52:54;101264.97;;;22.81;79.21
48053;BME280;33824;51.600;5.718;2023-06-26T05:55:20;101262.94;;;22.88;78.43
48053;BME280;33824;51.600;5.718;2023-06-26T05:57:46;101264.88;;;22.76;78.92
48053;BME280;33824;51.600;5.718;2023-06-26T06:00:12;101266.47;;;22.89;78.98
48053;BME280;33824;51.600;5.718;2023-06-26T06:02:38;101263.50;;;22.90;78.41
48053;BME280;33824;51.600;5.718;2023-06-26T06:05:05;101268.59;;;22.87;78.07
48053;BME280;33824;51.600;5.718;2023-06-26T06:07:35;101273.25;;;22.86;77.09
48053;BME280;33824;51.600;5.718;2023-06-26T06:10:02;101279.03;;;23.07;77.07
48053;BME280;33824;51.600;5.718;2023-06-26T06:12:28;101274.66;;;23.22;76.50
48053;BME280;33824;51.600;5.718;2023-06-26T06:14:55;101282.66;;;23.29;76.18
48053;BME280;33824;51.600;5.718;2023-06-26T06:17:21;101284.22;;;23.25;76.52
48053;BME280;33824;51.600;5.718;2023-06-26T06:19:47;101286.53;;;23.16;76.37
48053;BME280;33824;51.600;5.718;2023-06-26T06:22:12;101297.50;;;23.38;74.46
48053;BME280;33824;51.600;5.718;2023-06-26T06:24:38;101301.41;;;23.42;73.34
48053;BME280;33824;51.600;5.718;2023-06-26T06:27:03;101307.47;;;23.32;73.12
48053;BME280;33824;51.600;5.718;2023-06-26T06:29:29;101309.53;;;23.25;72.39
48053;BME280;33824;51.600;5.718;2023-06-26T06:31:56;101311.81;;;23.62;71.79
48053;BME280;33824;51.600;5.718;2023-06-26T06:34:22;101319.78;;;23.85;70.98
48053;BME280;33824;51.600;5.718;2023-06-26T06:36:48;101320.25;;;23.82;69.64
48053;BME280;33824;51.600;5.718;2023-06-26T06:39:15;101325.66;;;23.77;69.92
48053;BME280;33824;51.600;5.718;2023-06-26T06:41:41;101327.13;;;23.84;68.68
48053;BME280;33824;51.600;5.718;2023-06-26T06:44:07;101321.88;;;24.16;68.70
48053;BME280;33824;51.600;5.718;2023-06-26T06:46:32;101320.59;;;24.24;67.61
48053;BME280;33824;51.600;5.718;2023-06-26T06:48:58;101312.78;;;24.49;67.04
48053;BME280;33824;51.600;5.718;2023-06-26T06:51:25;101315.44;;;24.44;67.08
48053;BME280;33824;51.600;5.718;2023-06-26T06:53:51;101314.59;;;24.65;66.71
48053;BME280;33824;51.600;5.718;2023-06-26T06:56:16;101329.94;;;24.71;66.06
48053;BME280;33824;51.600;5.718;2023-06-26T06:58:42;101325.91;;;24.79;65.83
48053;BME280;33824;51.600;5.718;2023-06-26T07:01:12;101340.09;;;24.81;66.01
48053;BME280;33824;51.600;5.718;2023-06-26T07:03:38;101334.53;;;24.93;65.44
48053;BME280;33824;51.600;5.718;2023-06-26T07:06:03;101333.94;;;25.12;64.32
48053;BME280;33824;51.600;5.718;2023-06-26T07:08:29;101335.97;;;25.27;64.45
48053;BME280;33824;51.600;5.718;2023-06-26T07:10:55;101340.16;;;25.08;63.96
48053;BME280;33824;51.600;5.718;2023-06-26T07:13:22;101344.53;;;25.09;64.16
48053;BME280;33824;51.600;5.718;2023-06-26T07:15:48;101350.72;;;25.26;63.43
48053;BME280;33824;51.600;5.718;2023-06-26T07:18:14;101355.06;;;25.27;62.79
48053;BME280;33824;51.600;5.718;2023-06-26T07:20:40;101361.06;;;25.24;62.92
48053;BME280;33824;51.600;5.718;2023-06-26T07:23:05;101365.22;;;25.05;62.93
48053;BME280;33824;51.600;5.718;2023-06-26T07:25:31;101364.53;;;25.14;63.52
48053;BME280;33824;51.600;5.718;2023-06-26T07:27:57;101359.75;;;25.31;63.41
48053;BME280;33824;51.600;5.718;2023-06-26T07:30:22;101356.81;;;25.38;62.94
48053;BME280;33824;51.600;5.718;2023-06-26T07:32:50;101369.19;;;25.19;63.07
48053;BME280;33824;51.600;5.718;2023-06-26T07:35:15;101386.97;;;25.21;62.47
48053;BME280;33824;51.600;5.718;2023-06-26T07:37:41;101379.53;;;24.90;62.73
48053;BME280;33824;51.600;5.718;2023-06-26T07:40:07;101383.94;;;24.96;62.93
48053;BME280;33824;51.600;5.718;2023-06-26T07:42:33;101378.56;;;25.01;62.60
48053;BME280;33824;51.600;5.718;2023-06-26T07:44:58;101393.28;;;24.78;63.46
48053;BME280;33824;51.600;5.718;2023-06-26T07:47:24;101397.84;;;24.51;63.98
48053;BME280;33824;51.600;5.718;2023-06-26T07:49:50;101400.00;;;24.71;63.52
48053;BME280;33824;51.600;5.718;2023-06-26T07:52:17;101396.38;;;25.09;63.45
48053;BME280;33824;51.600;5.718;2023-06-26T07:54:43;101397.84;;;25.75;62.86
48053;BME280;33824;51.600;5.718;2023-06-26T07:57:09;101390.38;;;25.97;62.41
48053;BME280;33824;51.600;5.718;2023-06-26T07:59:36;101385.47;;;25.99;61.29
48053;BME280;33824;51.600;5.718;2023-06-26T08:02:02;101393.88;;;25.93;61.17
48053;BME280;33824;51.600;5.718;2023-06-26T08:04:30;101400.13;;;25.88;61.67
48053;BME280;33824;51.600;5.718;2023-06-26T08:06:58;101400.28;;;26.08;61.98
48053;BME280;33824;51.600;5.718;2023-06-26T08:09:26;101399.50;;;26.55;60.06
48053;BME280;33824;51.600;5.718;2023-06-26T08:11:53;101399.88;;;26.27;59.95
48053;BME280;33824;51.600;5.718;2023-06-26T08:14:19;101396.22;;;25.74;61.06
48053;BME280;33824;51.600;5.718;2023-06-26T08:16:45;101404.66;;;25.72;61.09
48053;BME280;33824;51.600;5.718;2023-06-26T08:19:15;101410.72;;;25.79;61.47
48053;BME280;33824;51.600;5.718;2023-06-26T08:21:42;101407.88;;;26.01;59.10
48053;BME280;33824;51.600;5.718;2023-06-26T08:24:08;101406.19;;;25.95;59.72
48053;BME280;33824;51.600;5.718;2023-06-26T08:26:35;101424.91;;;25.76;60.95
48053;BME280;33824;51.600;5.718;2023-06-26T08:29:01;101414.44;;;25.42;59.89
48053;BME280;33824;51.600;5.718;2023-06-26T08:31:37;101416.38;;;24.93;60.66
48053;BME280;33824;51.600;5.718;2023-06-26T08:34:04;101426.28;;;24.99;60.78
48053;BME280;33824;51.600;5.718;2023-06-26T08:36:30;101419.41;;;25.45;60.46
48053;BME280;33824;51.600;5.718;2023-06-26T08:38:56;101425.06;;;25.38;59.93
48053;BME280;33824;51.600;5.718;2023-06-26T08:41:22;101431.66;;;25.42;59.12
48053;BME280;33824;51.600;5.718;2023-06-26T08:43:48;101437.19;;;24.99;58.37
48053;BME280;33824;51.600;5.718;2023-06-26T08:46:16;101437.66;;;24.91;55.66
48053;BME280;33824;51.600;5.718;2023-06-26T08:48:47;101428.66;;;25.17;53.96
48053;BME280;33824;51.600;5.718;2023-06-26T08:51:16;101428.88;;;25.37;50.12
48053;BME280;33824;51.600;5.718;2023-06-26T09:04:13;101449.16;;;25.46;50.03
48053;BME280;33824;51.600;5.718;2023-06-26T09:06:39;101458.41;;;25.67;50.57
48053;BME280;33824;51.600;5.718;2023-06-26T09:09:05;101453.25;;;25.70;50.83
48053;BME280;33824;51.600;5.718;2023-06-26T09:11:31;101458.66;;;25.65;50.44
48053;BME280;33824;51.600;5.718;2023-06-26T09:13:56;101455.28;;;25.85;50.50
48053;BME280;33824;51.600;5.718;2023-06-26T09:16:26;101459.72;;;25.91;49.53
48053;BME280;33824;51.600;5.718;2023-06-26T09:18:52;101450.47;;;25.97;51.15
48053;BME280;33824;51.600;5.718;2023-06-26T09:21:18;101465.78;;;26.30;50.38
48053;BME280;33824;51.600;5.718;2023-06-26T09:23:43;101458.94;;;26.28;48.34
48053;BME280;33824;51.600;5.718;2023-06-26T09:26:09;101474.41;;;26.54;47.43
48053;BME280;33824;51.600;5.718;2023-06-26T09:28:36;101476.97;;;26.70;48.23
48053;BME280;33824;51.600;5.718;2023-06-26T09:31:07;101477.38;;;26.94;49.08
48053;BME280;33824;51.600;5.718;2023-06-26T09:33:37;101468.63;;;26.92;48.12
48053;BME280;33824;51.600;5.718;2023-06-26T09:36:07;101470.50;;;26.87;49.62
48053;BME280;33824;51.600;5.718;2023-06-26T09:38:35;101463.50;;;27.11;47.38
48053;BME280;33824;51.600;5.718;2023-06-26T09:41:02;101472.63;;;26.80;47.01
48053;BME280;33824;51.600;5.718;2023-06-26T09:43:28;101474.91;;;26.98;47.86
48053;BME280;33824;51.600;5.718;2023-06-26T09:45:54;101477.22;;;26.69;46.98
48053;BME280;33824;51.600;5.718;2023-06-26T09:48:20;101485.69;;;26.67;47.38
48053;BME280;33824;51.600;5.718;2023-06-26T09:50:46;101486.97;;;27.02;47.72
48053;BME280;33824;51.600;5.718;2023-06-26T09:53:12;101485.09;;;27.07;47.55
48053;BME280;33824;51.600;5.718;2023-06-26T09:55:44;101490.38;;;26.72;45.17
48053;BME280;33824;51.600;5.718;2023-06-26T09:58:13;101505.78;;;26.83;44.63
48053;BME280;33824;51.600;5.718;2023-06-26T10:00:44;101508.84;;;26.92;45.45
48053;BME280;33824;51.600;5.718;2023-06-26T10:03:12;101507.28;;;26.59;43.45
48053;BME280;33824;51.600;5.718;2023-06-26T10:05:40;101502.78;;;26.43;43.58
48053;BME280;33824;51.600;5.718;2023-06-26T10:08:06;101505.22;;;26.07;44.15
48053;BME280;33824;51.600;5.718;2023-06-26T10:10:35;101510.44;;;26.14;44.84
48053;BME280;33824;51.600;5.718;2023-06-26T10:13:10;101500.00;;;26.38;43.68
48053;BME280;33824;51.600;5.718;2023-06-26T10:15:39;101504.06;;;25.98;44.54
48053;BME280;33824;51.600;5.718;2023-06-26T10:18:08;101510.31;;;25.99;42.80
48053;BME280;33824;51.600;5.718;2023-06-26T10:20:34;101507.72;;;26.46;43.52
48053;BME280;33824;51.600;5.718;2023-06-26T10:23:01;101514.16;;;26.71;42.91
48053;BME280;33824;51.600;5.718;2023-06-26T10:25:30;101514.88;;;26.52;43.62
48053;BME280;33824;51.600;5.718;2023-06-26T10:27:58;101514.06;;;26.56;43.14
48053;BME280;33824;51.600;5.718;2023-06-26T10:30:29;101526.63;;;26.89;42.53
48053;BME280;33824;51.600;5.718;2023-06-26T10:32:56;101521.34;;;26.78;42.23
48053;BME280;33824;51.600;5.718;2023-06-26T10:35:23;101525.94;;;26.72;42.33
48053;BME280;33824;51.600;5.718;2023-06-26T10:37:50;101517.63;;;26.52;42.34
48053;BME280;33824;51.600;5.718;2023-06-26T10:40:28;101518.06;;;26.39;41.95
48053;BME280;33824;51.600;5.718;2023-06-26T10:43:07;101518.91;;;26.44;40.09
48053;BME280;33824;51.600;5.718;2023-06-26T10:45:34;101520.56;;;26.87;41.41
48053;BME280;33824;51.600;5.718;2023-06-26T10:48:03;101528.78;;;26.87;40.11
48053;BME280;33824;51.600;5.718;2023-06-26T10:50:31;101530.09;;;26.80;39.85
48053;BME280;33824;51.600;5.718;2023-06-26T11:01:20;101546.69;;;27.10;38.68
48053;BME280;33824;51.600;5.718;2023-06-26T11:03:47;101546.16;;;27.13;40.21
48053;BME280;33824;51.600;5.718;2023-06-26T11:06:18;101528.44;;;27.36;37.91
48053;BME280;33824;51.600;5.718;2023-06-26T11:08:45;101528.53;;;27.56;38.34
48053;BME280;33824;51.600;5.718;2023-06-26T11:11:12;101530.47;;;27.60;37.92
48053;BME280;33824;51.600;5.718;2023-06-26T11:13:39;101550.09;;;27.37;40.29
48053;BME280;33824;51.600;5.718;2023-06-26T11:16:06;101554.69;;;27.22;38.28
48053;BME280;33824;51.600;5.718;2023-06-26T11:18:32;101557.88;;;27.03;38.02
48053;BME280;33824;51.600;5.718;2023-06-26T11:21:08;101555.50;;;26.75;37.23
48053;BME280;33824;51.600;5.718;2023-06-26T11:23:35;101558.16;;;26.65;37.62
48053;BME280;33824;51.600;5.718;2023-06-26T11:26:20;101557.88;;;26.24;35.99
48053;BME280;33824;51.600;5.718;2023-06-26T11:28:50;101557.34;;;26.64;38.26
48053;BME280;33824;51.600;5.718;2023-06-26T11:31:26;101564.94;;;26.94;38.80
48053;BME280;33824;51.600;5.718;2023-06-26T11:33:53;101571.75;;;27.39;38.98
48053;BME280;33824;51.600;5.718;2023-06-26T11:36:19;101566.47;;;27.22;35.50
48053;BME280;33824;51.600;5.718;2023-06-26T11:38:44;101566.94;;;27.04;37.27
48053;BME280;33824;51.600;5.718;2023-06-26T11:41:10;101585.25;;;27.03;37.08
48053;BME280;33824;51.600;5.718;2023-06-26T11:43:35;101584.91;;;27.42;37.05
48053;BME280;33824;51.600;5.718;2023-06-26T11:46:01;101579.59;;;27.20;38.48
48053;BME280;33824;51.600;5.718;2023-06-26T11:48:27;101588.38;;;26.43;37.22
48053;BME280;33824;51.600;5.718;2023-06-26T11:50:54;101593.66;;;26.55;37.08
48053;BME280;33824;51.600;5.718;2023-06-26T11:53:19;101602.56;;;26.40;38.74
48053;BME280;33824;51.600;5.718;2023-06-26T11:55:45;101600.41;;;26.15;39.07
48053;BME280;33824;51.600;5.718;2023-06-26T11:58:11;101614.81;;;26.06;40.41
48053;BME280;33824;51.600;5.718;2023-06-26T12:00:41;101610.25;;;26.43;41.03
48053;BME280;33824;51.600;5.718;2023-06-26T12:03:07;101606.75;;;26.53;40.42
48053;BME280;33824;51.600;5.718;2023-06-26T12:05:33;101610.91;;;26.55;40.70
48053;BME280;33824;51.600;5.718;2023-06-26T12:07:58;101623.28;;;27.00;40.49
48053;BME280;33824;51.600;5.718;2023-06-26T12:10:26;101620.38;;;27.22;40.40
48053;BME280;33824;51.600;5.718;2023-06-26T12:12:52;101625.28;;;26.78;39.09
48053;BME280;33824;51.600;5.718;2023-06-26T12:15:19;101624.91;;;26.64;38.32
48053;BME280;33824;51.600;5.718;2023-06-26T12:17:44;101632.38;;;26.42;39.25
48053;BME280;33824;51.600;5.718;2023-06-26T12:20:23;101625.28;;;25.92;39.58
48053;BME280;33824;51.600;5.718;2023-06-26T12:22:50;101627.34;;;26.07;39.85
48053;BME280;33824;51.600;5.718;2023-06-26T12:25:22;101637.47;;;26.28;38.73
48053;BME280;33824;51.600;5.718;2023-06-26T12:27:48;101634.28;;;26.14;38.97
48053;BME280;33824;51.600;5.718;2023-06-26T12:30:15;101629.41;;;26.48;39.26
48053;BME280;33824;51.600;5.718;2023-06-26T12:32:44;101636.25;;;26.46;39.33
48053;BME280;33824;51.600;5.718;2023-06-26T12:35:11;101633.44;;;26.36;40.24
48053;BME280;33824;51.600;5.718;2023-06-26T12:37:37;101636.91;;;26.58;39.36
48053;BME280;33824;51.600;5.718;2023-06-26T12:40:16;101641.13;;;26.76;37.27
48053;BME280;33824;51.600;5.718;2023-06-26T12:42:42;101639.28;;;26.81;38.84
48053;BME280;33824;51.600;5.718;2023-06-26T12:45:12;101627.94;;;26.99;37.94
48053;BME280;33824;51.600;5.718;2023-06-26T12:47:38;101626.69;;;27.22;37.79
48053;BME280;33824;51.600;5.718;2023-06-26T12:50:07;101624.25;;;27.26;38.16
48053;BME280;33824;51.600;5.718;2023-06-26T12:52:33;101616.56;;;27.23;37.02
48053;BME280;33824;51.600;5.718;2023-06-26T12:54:59;101619.69;;;26.94;37.84
48053;BME280;33824;51.600;5.718;2023-06-26T12:57:25;101617.66;;;27.16;38.58
48053;BME280;33824;51.600;5.718;2023-06-26T12:59:52;101623.25;;;26.95;37.70
48053;BME280;33824;51.600;5.718;2023-06-26T13:02:17;101624.41;;;26.67;39.21
48053;BME280;33824;51.600;5.718;2023-06-26T13:04:44;101632.81;;;26.07;39.31
48053;BME280;33824;51.600;5.718;2023-06-26T13:07:10;101636.59;;;26.01;38.85
48053;BME280;33824;51.600;5.718;2023-06-26T13:09:37;101646.28;;;25.87;38.76